createdAt,value
2019-04-04T00:00:09.542Z,52.43
2019-04-04T00:02:38.589Z,57.90
2019-04-04T00:05:07.784Z,53.13
2019-04-04T00:07:36.870Z,51.88
2019-04-04T00:10:07.669Z,59.90
2019-04-04T00:12:38.931Z,56.08
2019-04-04T00:15:07.827Z,54.05
2019-04-04T00:17:36.877Z,55.65
2019-04-04T00:20:07.013Z,57.85
2019-04-04T00:22:36.070Z,60.20
2019-04-04T00:25:06.075Z,55.58
2019-04-04T00:27:35.155Z,58.55
2019-04-04T00:30:05.945Z,52.03
2019-04-04T00:32:35.005Z,61.35
2019-04-04T00:35:04.143Z,57.80
2019-04-04T00:37:34.489Z,55.60
2019-04-04T00:40:10.908Z,56.08
2019-04-04T00:42:37.811Z,49.88
2019-04-04T00:45:08.217Z,56.33
2019-04-04T00:47:37.279Z,54.27
2019-04-04T00:50:07.482Z,57.53
2019-04-04T00:52:36.541Z,56.33
2019-04-04T00:55:06.945Z,59.73
2019-04-04T00:57:36.062Z,56.18
2019-04-04T01:00:07.968Z,52.62
2019-04-04T01:02:37.081Z,52.33
2019-04-04T01:05:07.183Z,55.40
2019-04-04T01:07:36.469Z,59.05
2019-04-04T01:10:08.692Z,54.98
2019-04-04T01:12:37.824Z,57.60
2019-04-04T01:15:07.601Z,54.85
2019-04-04T01:17:36.737Z,58.10
2019-04-04T01:20:08.340Z,63.90
2019-04-04T01:22:37.471Z,69.60
2019-04-04T01:25:07.181Z,66.75
2019-04-04T01:27:36.901Z,65.20
2019-04-04T01:30:08.001Z,64.60
2019-04-04T01:32:37.050Z,64.12
2019-04-04T01:35:06.938Z,62.93
2019-04-04T01:37:36.031Z,72.78
2019-04-04T01:40:05.620Z,63.23
2019-04-04T01:42:37.860Z,64.35
2019-04-04T01:45:06.893Z,63.60
2019-04-04T01:47:35.948Z,59.83
2019-04-04T01:50:06.111Z,66.55
2019-04-04T01:52:35.175Z,59.50
2019-04-04T01:55:05.292Z,54.63
2019-04-04T01:57:34.397Z,64.05
2019-04-04T02:00:05.485Z,60.67
2019-04-04T02:02:34.548Z,57.73
2019-04-04T02:05:03.847Z,53.58
2019-04-04T02:07:32.903Z,66.15
2019-04-04T02:10:03.231Z,54.10
2019-04-04T02:12:32.732Z,57.15
2019-04-04T02:15:01.781Z,62.40
2019-04-04T02:17:30.923Z,65.50
2019-04-04T02:19:59.973Z,59.58
2019-04-04T02:22:31.000Z,56.98
2019-04-04T02:25:02.749Z,63.38
2019-04-04T02:27:30.683Z,54.42
2019-04-04T02:29:59.727Z,65.12
2019-04-04T02:32:29.567Z,65.57
2019-04-04T02:34:58.681Z,62.70
2019-04-04T02:37:27.799Z,58.33
2019-04-04T02:39:56.872Z,56.85
2019-04-04T02:42:25.919Z,65.17
2019-04-04T02:44:54.982Z,62.20
2019-04-04T02:47:24.031Z,65.35
2019-04-04T02:49:53.226Z,61.83
2019-04-04T02:52:22.261Z,62.13
2019-04-04T02:54:51.369Z,72.25
2019-04-04T02:57:20.459Z,57.13
2019-04-04T02:59:52.817Z,55.63
2019-04-04T03:02:20.377Z,58.50
2019-04-04T03:04:49.435Z,60.80
2019-04-04T03:07:18.516Z,55.75
2019-04-04T03:09:47.596Z,61.08
2019-04-04T03:12:16.643Z,53.70
2019-04-04T03:14:45.876Z,70.80
2019-04-04T03:17:14.939Z,71.60
2019-04-04T03:19:44.679Z,57.85
2019-04-04T03:22:13.824Z,64.10
2019-04-04T03:24:44.890Z,64.37
2019-04-04T03:27:13.638Z,63.20
2019-04-04T03:29:42.690Z,65.70
2019-04-04T03:32:14.376Z,65.55
2019-04-04T03:34:47.832Z,65.12
2019-04-04T03:37:13.306Z,64.58
2019-04-04T03:39:42.436Z,62.65
2019-04-04T03:42:11.550Z,61.28
2019-04-04T03:44:40.604Z,57.90
2019-04-04T03:47:10.384Z,60.83
2019-04-04T03:49:40.407Z,60.03
2019-04-04T03:52:11.309Z,61.58
2019-04-04T03:54:40.315Z,63.85
2019-04-04T03:57:12.261Z,51.42
2019-04-04T03:59:40.159Z,58.60
2019-04-04T04:02:09.217Z,67.15
2019-04-04T04:04:38.306Z,61.60
2019-04-04T04:07:07.434Z,60.15
2019-04-04T04:09:36.487Z,59.58
2019-04-04T04:12:10.028Z,71.33
2019-04-04T04:14:36.312Z,57.90
2019-04-04T04:17:05.380Z,71.90
2019-04-04T04:19:34.570Z,84.28
2019-04-04T04:22:03.623Z,64.58
2019-04-04T04:24:32.741Z,65.35
2019-04-04T04:27:01.800Z,64.70
2019-04-04T04:29:30.884Z,65.67
2019-04-04T04:31:59.974Z,65.97
2019-04-04T04:34:32.853Z,70.10
2019-04-04T04:36:59.809Z,70.57
2019-04-04T04:39:28.933Z,59.20
2019-04-04T04:41:58.000Z,57.58
2019-04-04T04:44:27.096Z,61.45
2019-04-04T04:46:56.157Z,60.83
2019-04-04T04:49:25.220Z,59.13
2019-04-04T04:51:54.343Z,65.00
2019-04-04T04:54:23.560Z,80.60
2019-04-04T04:56:52.734Z,107.05
2019-04-04T04:59:21.772Z,60.55
2019-04-04T05:01:51.345Z,63.60
2019-04-04T05:04:20.502Z,54.98
2019-04-04T05:06:49.651Z,52.62
2019-04-04T05:09:21.807Z,56.37
2019-04-04T05:11:51.031Z,49.70
2019-04-04T05:14:20.179Z,50.80
2019-04-04T05:16:49.233Z,58.58
2019-04-04T05:19:18.999Z,56.35
2019-04-04T05:21:48.729Z,77.97
2019-04-04T05:24:18.100Z,85.42
2019-04-04T05:26:47.843Z,59.00
2019-04-04T05:29:17.089Z,389.20
2019-04-04T05:31:46.181Z,145.82
2019-04-04T05:34:15.237Z,233.68
2019-04-04T05:36:44.312Z,341.65
2019-04-04T05:39:13.360Z,46.15
2019-04-04T05:41:42.415Z,55.85
2019-04-04T05:44:11.500Z,65.78
2019-04-04T05:46:40.613Z,65.95
2019-04-04T05:49:09.642Z,61.95
2019-04-04T05:51:38.705Z,63.23
2019-04-04T05:54:08.394Z,54.75
2019-04-04T05:56:37.613Z,57.48
2019-04-04T05:59:06.742Z,58.90
2019-04-04T06:01:36.015Z,57.65
2019-04-04T06:04:05.151Z,68.35
2019-04-04T06:06:34.311Z,70.60
2019-04-04T06:09:05.116Z,68.70
2019-04-04T06:11:38.822Z,66.15
2019-04-04T06:14:08.383Z,70.15
2019-04-04T06:16:37.429Z,69.22
2019-04-04T06:19:06.559Z,62.58
2019-04-04T06:21:35.609Z,74.75
2019-04-04T06:24:04.822Z,56.42
2019-04-04T06:26:33.957Z,58.65
2019-04-04T06:29:05.546Z,58.50
2019-04-04T06:31:33.792Z,56.15
2019-04-04T06:34:05.676Z,51.33
2019-04-04T06:36:33.645Z,53.92
2019-04-04T06:39:04.220Z,44.98
2019-04-04T06:41:33.272Z,57.95
2019-04-04T06:44:02.348Z,57.62
2019-04-04T06:46:31.404Z,58.15
2019-04-04T06:49:03.857Z,57.75
2019-04-04T06:51:31.237Z,55.95
2019-04-04T06:54:00.317Z,58.52
2019-04-04T06:56:31.751Z,63.30
2019-04-04T06:59:00.210Z,54.85
2019-04-04T07:01:29.263Z,51.68
2019-04-04T07:03:59.499Z,60.10
2019-04-04T07:06:29.219Z,52.65
2019-04-04T07:08:58.287Z,48.30
2019-04-04T07:11:27.341Z,49.05
2019-04-04T07:13:57.023Z,47.13
2019-04-04T07:16:27.251Z,45.43
2019-04-04T07:18:56.293Z,46.80
2019-04-04T07:21:25.362Z,40.85
2019-04-04T07:23:54.450Z,39.95
2019-04-04T07:26:23.498Z,38.75
2019-04-04T07:28:54.029Z,38.02
2019-04-04T07:31:23.213Z,38.48
2019-04-04T07:33:52.267Z,34.38
2019-04-04T07:36:21.337Z,36.65
2019-04-04T07:38:50.379Z,31.97
2019-04-04T07:41:19.432Z,32.10
2019-04-04T07:43:51.203Z,31.37
2019-04-04T07:46:19.244Z,39.15
2019-04-04T07:48:51.320Z,35.03
2019-04-04T07:51:19.071Z,33.58
2019-04-04T07:53:48.124Z,31.12
2019-04-04T07:56:17.203Z,29.27
2019-04-04T07:58:46.255Z,29.85
2019-04-04T08:01:15.316Z,27.82
2019-04-04T08:03:44.360Z,25.95
2019-04-04T08:06:13.438Z,24.32
2019-04-04T08:08:42.487Z,22.42
2019-04-04T08:11:13.360Z,21.87
2019-04-04T08:13:42.317Z,18.27
2019-04-04T08:16:11.443Z,19.07
2019-04-04T08:18:40.493Z,19.65
2019-04-04T08:21:09.539Z,17.92
2019-04-04T08:23:38.589Z,20.02
2019-04-04T08:26:10.061Z,14.90
2019-04-04T08:28:38.436Z,14.47
2019-04-04T08:31:09.847Z,15.85
2019-04-04T08:33:38.551Z,14.07
2019-04-04T08:36:07.623Z,13.18
2019-04-04T08:38:36.692Z,14.55
2019-04-04T08:41:05.759Z,13.98
2019-04-04T08:43:34.823Z,13.80
2019-04-04T08:46:04.066Z,13.88
2019-04-04T08:48:33.137Z,14.65
2019-04-04T08:51:02.198Z,14.15
2019-04-04T08:53:39.792Z,16.75
2019-04-04T08:56:02.092Z,15.53
2019-04-04T08:58:31.249Z,14.75
2019-04-04T09:01:00.317Z,13.43
2019-04-04T09:03:29.379Z,13.10
2019-04-04T09:05:58.524Z,13.08
2019-04-04T09:08:27.587Z,13.43
2019-04-04T09:10:56.656Z,14.60
2019-04-04T09:13:25.731Z,14.93
2019-04-04T09:15:54.791Z,14.13
2019-04-04T09:18:23.860Z,14.50
2019-04-04T09:20:52.930Z,15.98
2019-04-04T09:23:21.997Z,15.30
2019-04-04T09:25:51.047Z,15.72
2019-04-04T09:28:20.115Z,15.50
2019-04-04T09:30:49.189Z,15.58
2019-04-04T09:33:20.911Z,17.10
2019-04-04T09:35:49.223Z,16.42
2019-04-04T09:38:18.273Z,15.98
2019-04-04T09:40:47.349Z,15.23
2019-04-04T09:43:16.447Z,16.02
2019-04-04T09:45:45.508Z,15.70
2019-04-04T09:48:14.560Z,17.60
2019-04-04T09:50:43.914Z,30.45
2019-04-04T09:53:12.965Z,24.02
2019-04-04T09:55:42.022Z,21.05
2019-04-04T09:58:11.101Z,17.32
2019-04-04T10:00:40.622Z,18.25
2019-04-04T10:03:09.741Z,17.35
2019-04-04T10:05:39.057Z,18.32
2019-04-04T10:08:08.172Z,17.20
2019-04-04T10:10:37.228Z,17.45
2019-04-04T10:13:06.284Z,50.08
2019-04-04T10:15:35.340Z,18.50
2019-04-04T10:18:04.461Z,16.87
2019-04-04T10:20:33.589Z,19.27
2019-04-04T10:23:02.643Z,17.37
2019-04-04T10:25:31.708Z,18.32
2019-04-04T10:28:00.763Z,16.07
2019-04-04T10:30:29.899Z,18.17
2019-04-04T10:32:58.932Z,17.10
2019-04-04T10:35:28.000Z,17.90
2019-04-04T10:37:57.055Z,16.27
2019-04-04T10:40:26.145Z,15.98
2019-04-04T10:42:55.197Z,16.82
2019-04-04T10:45:24.333Z,18.57
2019-04-04T10:47:53.385Z,18.70
2019-04-04T10:50:22.436Z,19.70
2019-04-04T10:52:51.487Z,19.95
2019-04-04T10:55:20.623Z,21.12
2019-04-04T10:57:49.681Z,22.20
2019-04-04T11:00:18.996Z,21.30
2019-04-04T11:02:48.127Z,20.75
2019-04-04T11:05:17.320Z,20.45
2019-04-04T11:07:46.377Z,21.23
2019-04-04T11:10:15.505Z,20.20
2019-04-04T11:12:44.575Z,22.05
2019-04-04T11:15:13.772Z,25.10
2019-04-04T11:17:42.835Z,25.48
2019-04-04T11:20:12.028Z,26.85
2019-04-04T11:22:41.093Z,27.05
2019-04-04T11:25:10.273Z,29.00
2019-04-04T11:27:39.328Z,29.37
2019-04-04T11:30:09.417Z,40.75
2019-04-04T11:32:38.464Z,34.15
2019-04-04T11:35:07.873Z,32.35
2019-04-04T11:37:36.989Z,29.90
2019-04-04T11:40:06.544Z,30.77
2019-04-04T11:42:35.663Z,29.92
2019-04-04T11:45:05.163Z,30.75
2019-04-04T11:47:34.324Z,31.25
2019-04-04T11:50:04.711Z,31.12
2019-04-04T11:52:33.764Z,30.55
2019-04-04T11:55:02.810Z,31.80
2019-04-04T11:57:31.935Z,31.25
2019-04-04T12:00:00.980Z,33.15
2019-04-04T12:02:32.554Z,30.77
2019-04-04T12:05:00.980Z,33.73
2019-04-04T12:07:30.027Z,33.98
2019-04-04T12:10:07.280Z,33.60
2019-04-04T12:12:29.850Z,34.43
2019-04-04T12:14:58.969Z,34.03
2019-04-04T12:17:28.022Z,35.45
2019-04-04T12:19:57.094Z,36.38
2019-04-04T12:22:26.138Z,34.83
2019-04-04T12:24:55.220Z,38.28
2019-04-04T12:27:24.340Z,39.08
2019-04-04T12:29:53.406Z,38.25
2019-04-04T12:32:22.467Z,37.88
2019-04-04T12:34:51.542Z,39.15
2019-04-04T12:37:20.596Z,40.10
2019-04-04T12:39:49.673Z,39.98
2019-04-04T12:42:18.736Z,41.25
2019-04-04T12:44:47.816Z,43.10
2019-04-04T12:47:16.864Z,43.15
2019-04-04T12:49:45.936Z,44.30
2019-04-04T12:52:14.992Z,46.42
2019-04-04T12:54:44.049Z,45.12
2019-04-04T12:57:13.100Z,44.88
2019-04-04T12:59:42.234Z,45.00
2019-04-04T13:02:11.271Z,25.70
2019-04-04T13:04:40.347Z,21.60
2019-04-04T13:07:09.411Z,23.18
2019-04-04T13:09:38.492Z,23.98
2019-04-04T13:12:07.549Z,24.82
2019-04-04T13:14:36.609Z,26.48
2019-04-04T13:17:05.698Z,25.43
2019-04-04T13:19:34.778Z,27.73
2019-04-04T13:22:04.276Z,28.02
2019-04-04T13:24:33.492Z,29.60
2019-04-04T13:27:02.528Z,30.32
2019-04-04T13:29:31.633Z,33.73
2019-04-04T13:32:00.706Z,33.73
2019-04-04T13:34:29.753Z,35.15
2019-04-04T13:36:58.807Z,32.83
2019-04-04T13:39:27.857Z,32.33
2019-04-04T13:41:56.915Z,33.18
2019-04-04T13:44:25.966Z,33.95
2019-04-04T13:46:55.022Z,34.55
2019-04-04T13:49:24.076Z,35.25
2019-04-04T13:51:53.711Z,39.33
2019-04-04T13:54:22.990Z,36.75
2019-04-04T13:56:52.130Z,36.23
2019-04-04T13:59:21.325Z,38.20
2019-04-04T14:01:50.384Z,38.50
2019-04-04T14:04:20.437Z,35.03
2019-04-04T14:06:49.853Z,37.30
2019-04-04T14:09:18.993Z,36.48
2019-04-04T14:11:48.060Z,36.45
2019-04-04T14:14:17.140Z,39.88
2019-04-04T14:16:46.203Z,38.83
2019-04-04T14:19:15.256Z,41.13
2019-04-04T14:21:44.327Z,40.25
2019-04-04T14:24:14.334Z,41.25
2019-04-04T14:26:45.988Z,41.37
2019-04-04T14:29:26.622Z,41.30
2019-04-04T14:31:45.110Z,43.40
2019-04-04T14:34:14.228Z,45.17
2019-04-04T14:36:43.275Z,45.25
2019-04-04T14:39:12.616Z,44.10
2019-04-04T14:41:41.676Z,42.03
2019-04-04T14:44:10.749Z,41.80
2019-04-04T14:46:39.984Z,43.52
2019-04-04T14:49:09.152Z,46.37
2019-04-04T14:51:38.200Z,43.52
2019-04-04T14:54:07.253Z,43.60
2019-04-04T14:56:36.321Z,45.45
2019-04-04T14:59:05.389Z,44.30
2019-04-04T15:01:35.210Z,43.90
2019-04-04T15:04:04.333Z,44.45
2019-04-04T15:06:33.396Z,46.02
2019-04-04T15:09:02.527Z,45.88
2019-04-04T15:11:31.581Z,45.23
2019-04-04T15:14:00.651Z,49.10
2019-04-04T15:16:29.707Z,46.40
2019-04-04T15:18:58.767Z,46.45
2019-04-04T15:21:27.820Z,47.08
2019-04-04T15:23:56.900Z,48.75
2019-04-04T15:26:25.948Z,45.58
2019-04-04T15:28:55.160Z,46.80
2019-04-04T15:31:24.216Z,46.85
2019-04-04T15:33:53.270Z,47.40
2019-04-04T15:36:22.595Z,45.00
2019-04-04T15:38:51.652Z,47.33
2019-04-04T15:41:20.756Z,48.80
2019-04-04T15:43:49.947Z,47.45
2019-04-04T15:46:19.045Z,47.75
2019-04-04T15:48:48.134Z,52.80
2019-04-04T15:51:17.183Z,45.55
2019-04-04T15:53:46.258Z,47.50
2019-04-04T15:56:15.316Z,48.30
2019-04-04T15:58:44.369Z,47.10
2019-04-04T16:01:13.482Z,49.00
2019-04-04T16:03:42.600Z,49.93
2019-04-04T16:06:22.776Z,49.40
2019-04-04T16:08:51.865Z,48.75
2019-04-04T16:11:21.004Z,48.63
2019-04-04T16:13:50.060Z,46.95
2019-04-04T16:16:19.183Z,49.10
2019-04-04T16:18:48.275Z,50.20
2019-04-04T16:21:17.350Z,45.88
2019-04-04T16:23:46.403Z,51.68
2019-04-04T16:26:15.479Z,50.85
2019-04-04T16:28:44.541Z,52.50
2019-04-04T16:31:13.612Z,47.38
2019-04-04T16:33:42.693Z,50.03
2019-04-04T16:36:11.853Z,51.53
2019-04-04T16:38:40.937Z,50.23
2019-04-04T16:41:10.030Z,50.00
2019-04-04T16:43:39.095Z,51.10
2019-04-04T16:46:08.180Z,55.48
2019-04-04T16:48:37.321Z,50.12
2019-04-04T16:51:06.420Z,53.60
2019-04-04T16:53:35.488Z,53.20
2019-04-04T16:56:04.879Z,53.90
2019-04-04T16:58:36.777Z,59.20
2019-04-04T17:01:04.886Z,53.78
2019-04-04T17:03:34.444Z,52.80
2019-04-04T17:06:03.887Z,51.02
2019-04-04T17:08:33.049Z,50.45
2019-04-04T17:11:02.124Z,55.58
2019-04-04T17:13:31.467Z,51.63
2019-04-04T17:16:00.541Z,56.37
2019-04-04T17:18:29.604Z,48.28
2019-04-04T17:20:58.798Z,49.03
2019-04-04T17:23:27.905Z,50.73
2019-04-04T17:25:58.583Z,50.80
2019-04-04T17:28:27.729Z,47.33
2019-04-04T17:30:56.825Z,51.83
2019-04-04T17:33:26.435Z,48.05
2019-04-04T17:35:55.783Z,53.15
2019-04-04T17:38:24.898Z,56.18
2019-04-04T17:40:53.964Z,50.20
2019-04-04T17:43:23.065Z,51.98
2019-04-04T17:45:52.254Z,47.53
2019-04-04T17:48:21.356Z,48.13
2019-04-04T17:50:50.680Z,46.83
2019-04-04T17:53:20.265Z,51.30
2019-04-04T17:55:49.457Z,48.50
2019-04-04T17:58:18.544Z,50.63
2019-04-04T18:00:47.639Z,49.90
2019-04-04T18:03:16.765Z,48.40
2019-04-04T18:05:45.847Z,46.18
2019-04-04T18:08:14.980Z,48.80
2019-04-04T18:10:44.039Z,46.25
2019-04-04T18:13:13.140Z,49.93
2019-04-04T18:15:42.334Z,47.20
2019-04-04T18:18:11.403Z,47.78
2019-04-04T18:20:40.461Z,51.28
2019-04-04T18:23:09.532Z,49.65
2019-04-04T18:25:38.601Z,56.95
2019-04-04T18:28:07.732Z,56.15
2019-04-04T18:30:36.803Z,54.70
2019-04-04T18:33:06.181Z,47.60
2019-04-04T18:35:35.306Z,50.38
2019-04-04T18:38:04.662Z,49.63
2019-04-04T18:40:33.865Z,52.13
2019-04-04T18:43:03.005Z,48.05
2019-04-04T18:45:32.065Z,48.10
2019-04-04T18:48:01.215Z,51.50
2019-04-04T18:50:30.272Z,54.73
2019-04-04T18:52:59.341Z,49.05
2019-04-04T18:55:28.669Z,49.83
2019-04-04T18:57:57.757Z,49.60
2019-04-04T19:00:26.893Z,49.63
2019-04-04T19:02:56.040Z,51.98
2019-04-04T19:05:26.892Z,50.45
2019-04-04T19:07:55.957Z,53.80
2019-04-04T19:10:25.030Z,45.20
2019-04-04T19:13:04.672Z,46.90
2019-04-04T19:15:24.855Z,48.13
2019-04-04T19:17:53.913Z,46.28
2019-04-04T19:20:23.045Z,53.58
2019-04-04T19:22:52.105Z,52.13
2019-04-04T19:25:21.152Z,56.35
2019-04-04T19:27:50.224Z,50.58
2019-04-04T19:30:19.784Z,53.25
2019-04-04T19:32:48.924Z,53.65
2019-04-04T19:35:18.044Z,59.10
2019-04-04T19:37:54.460Z,51.50
2019-04-04T19:40:18.008Z,52.67
2019-04-04T19:42:47.065Z,51.13
2019-04-04T19:45:16.864Z,68.80
2019-04-04T19:47:45.921Z,57.70
2019-04-04T19:50:15.052Z,53.80
2019-04-04T19:52:44.132Z,49.65
2019-04-04T19:55:13.192Z,54.00
2019-04-04T19:57:42.331Z,52.90
2019-04-04T20:00:12.492Z,57.00
2019-04-04T20:02:43.838Z,53.68
2019-04-04T20:05:12.592Z,55.78
2019-04-04T20:07:41.635Z,55.23
2019-04-04T20:10:11.203Z,53.78
2019-04-04T20:12:40.366Z,58.17
2019-04-04T20:15:09.680Z,59.00
2019-04-04T20:17:38.798Z,58.63
2019-04-04T20:20:09.145Z,56.73
2019-04-04T20:22:38.268Z,62.40
2019-04-04T20:25:07.706Z,59.15
2019-04-04T20:27:36.922Z,57.75
2019-04-04T20:30:08.652Z,58.83
2019-04-04T20:32:37.758Z,57.67
2019-04-04T20:35:07.988Z,57.98
2019-04-04T20:37:37.120Z,60.45
2019-04-04T20:40:06.521Z,57.88
2019-04-04T20:42:35.582Z,60.08
2019-04-04T20:45:05.758Z,58.87
2019-04-04T20:47:34.950Z,63.68
2019-04-04T20:50:06.300Z,57.73
2019-04-04T20:52:35.367Z,65.35
2019-04-04T20:55:05.689Z,63.83
2019-04-04T20:57:34.746Z,65.95
2019-04-04T21:00:05.043Z,63.50
2019-04-04T21:02:34.080Z,59.73
2019-04-04T21:05:03.195Z,59.53
2019-04-04T21:07:32.257Z,58.58
2019-04-04T21:10:01.323Z,59.55
2019-04-04T21:12:30.463Z,61.13
2019-04-04T21:14:59.514Z,58.38
2019-04-04T21:17:28.570Z,59.38
2019-04-04T21:19:57.622Z,64.42
2019-04-04T21:22:27.936Z,58.48
2019-04-04T21:24:57.190Z,63.02
2019-04-04T21:27:26.255Z,62.93
2019-04-04T21:29:55.367Z,60.10
2019-04-04T21:32:24.699Z,61.13
2019-04-04T21:34:53.761Z,62.55
2019-04-04T21:37:23.177Z,61.58
2019-04-04T21:39:52.230Z,66.60
2019-04-04T21:42:21.353Z,64.58
2019-04-04T21:44:50.411Z,64.55
2019-04-04T21:47:19.453Z,63.45
2019-04-04T21:49:48.594Z,60.35
2019-04-04T21:52:17.637Z,65.37
2019-04-04T21:54:46.715Z,68.52
2019-04-04T21:57:15.839Z,61.00
2019-04-04T21:59:44.881Z,64.75
2019-04-04T22:02:14.014Z,62.45
2019-04-04T22:04:43.131Z,67.92
2019-04-04T22:07:12.201Z,66.33
2019-04-04T22:09:41.252Z,64.32
2019-04-04T22:12:10.305Z,63.28
2019-04-04T22:14:39.384Z,63.87
2019-04-04T22:17:08.558Z,62.60
2019-04-04T22:19:37.641Z,63.80
2019-04-04T22:22:06.704Z,61.73
2019-04-04T22:24:35.761Z,63.08
2019-04-04T22:27:04.958Z,60.05
2019-04-04T22:29:34.036Z,58.83
2019-04-04T22:32:03.171Z,55.50
2019-04-04T22:34:32.323Z,57.90
2019-04-04T22:37:01.547Z,51.20
2019-04-04T22:39:30.721Z,49.38
2019-04-04T22:41:59.908Z,50.92
2019-04-04T22:44:34.604Z,50.30
2019-04-04T22:46:59.876Z,48.40
2019-04-04T22:49:29.054Z,51.13
2019-04-04T22:51:58.268Z,45.43
2019-04-04T22:54:28.560Z,51.58
2019-04-04T22:56:57.626Z,48.73
2019-04-04T22:59:26.902Z,49.90
2019-04-04T23:01:55.996Z,55.12
2019-04-04T23:04:25.187Z,52.53
2019-04-04T23:06:54.344Z,47.50
2019-04-04T23:09:23.490Z,53.90
2019-04-04T23:11:52.601Z,55.60
2019-04-04T23:14:21.854Z,53.08
2019-04-04T23:16:51.282Z,54.53
2019-04-04T23:19:20.453Z,57.53
2019-04-04T23:21:49.635Z,58.78
2019-04-04T23:24:18.826Z,55.38
2019-04-04T23:26:47.962Z,55.40
2019-04-04T23:29:17.152Z,57.90
2019-04-04T23:31:46.301Z,54.55
2019-04-04T23:34:15.482Z,56.63
2019-04-04T23:36:44.635Z,57.30
2019-04-04T23:39:13.715Z,58.48
2019-04-04T23:41:42.854Z,53.92
2019-04-04T23:44:11.963Z,50.90
2019-04-04T23:46:41.178Z,59.65
2019-04-04T23:49:10.369Z,52.17
2019-04-04T23:51:39.526Z,57.90
2019-04-04T23:54:08.610Z,55.50
2019-04-04T23:56:37.713Z,52.73
2019-04-04T23:59:06.851Z,51.18
